Time;durP1;ratioP1;P1;durP2;ratioP2;P2;SDS_P1;SDS_P2;PMS_P1;PMS_P2;Temp;Humidity;BMP_temperature;BMP_pressure;BME280_temperature;BME280_humidity;BME280_pressure;Samples;Min_cycle;Max_cycle;Signal;HPM_P1;HPM_P2
2022/04/30 00:00:05;;;;;;;10.35;8.30;;;;;;;;;;5067554;28;20020;-80
2022/04/30 00:02:30;;;;;;;13.23;8.73;;;;;;;;;;5103908;22;20044;-81
2022/04/30 00:04:55;;;;;;;10.77;8.40;;;;;;;;;;5090109;28;20111;-81
2022/04/30 00:07:21;;;;;;;14.23;8.65;;;;;;;;;;5087550;28;20036;-81
2022/04/30 00:09:48;;;;;;;11.35;8.27;;;;;;;;;;5084294;28;20140;-80
2022/04/30 00:12:15;;;;;;;12.10;8.70;;;;;;;;;;5070370;28;20031;-80
2022/04/30 00:14:41;;;;;;;10.32;8.02;;;;;;;;;;5060139;28;20451;-81
2022/04/30 00:17:07;;;;;;;11.45;8.30;;;;;;;;;;5060267;28;20029;-81
2022/04/30 00:19:33;;;;;;;14.52;9.93;;;;;;;;;;5060476;28;20439;-80
2022/04/30 00:21:58;;;;;;;11.68;7.93;;;;;;;;;;5059126;28;20029;-81
2022/04/30 00:24:25;;;;;;;11.50;6.93;;;;;;;;;;5059434;28;20374;-81
2022/04/30 00:26:51;;;;;;;13.77;7.45;;;;;;;;;;5069488;28;20479;-80
2022/04/30 00:29:17;;;;;;;10.57;7.63;;;;;;;;;;5063176;28;20034;-81
2022/04/30 00:31:43;;;;;;;14.55;7.15;;;;;;;;;;5050789;28;20068;-81
2022/04/30 00:34:09;;;;;;;8.40;6.63;;;;;;;;;;5039459;28;20044;-81
2022/04/30 00:36:35;;;;;;;9.77;6.95;;;;;;;;;;5033306;28;20100;-80
2022/04/30 00:39:01;;;;;;;11.38;7.00;;;;;;;;;;5067735;28;20048;-81
2022/04/30 00:41:27;;;;;;;9.68;6.80;;;;;;;;;;5059191;28;20103;-81
2022/04/30 00:43:54;;;;;;;8.27;6.00;;;;;;;;;;5068013;28;20108;-80
2022/04/30 00:46:21;;;;;;;9.68;6.38;;;;;;;;;;5040224;28;20028;-81
2022/04/30 00:48:48;;;;;;;7.80;6.10;;;;;;;;;;5046356;28;20112;-81
2022/04/30 00:51:17;;;;;;;12.65;6.18;;;;;;;;;;5059388;28;20360;-81
2022/04/30 00:53:47;;;;;;;13.98;6.40;;;;;;;;;;5058273;28;20025;-81
2022/04/30 00:56:14;;;;;;;11.45;6.18;;;;;;;;;;5069572;28;20028;-80
2022/04/30 00:58:42;;;;;;;9.50;6.28;;;;;;;;;;5070504;28;20016;-82
2022/04/30 01:01:08;;;;;;;13.20;6.80;;;;;;;;;;5078380;28;20032;-80
2022/04/30 01:03:33;;;;;;;12.00;6.65;;;;;;;;;;5042291;28;20025;-81
2022/04/30 01:06:00;;;;;;;15.05;7.53;;;;;;;;;;5060635;28;20163;-80
2022/04/30 01:08:27;;;;;;;13.30;7.82;;;;;;;;;;5057629;28;20044;-81
2022/04/30 01:10:56;;;;;;;14.80;7.72;;;;;;;;;;5058665;28;20498;-81
2022/04/30 01:13:22;;;;;;;11.75;8.23;;;;;;;;;;5058489;28;20040;-81
2022/04/30 01:15:48;;;;;;;13.65;9.07;;;;;;;;;;5057580;28;20536;-81
2022/04/30 01:18:13;;;;;;;12.23;8.32;;;;;;;;;;5077996;28;20032;-81
2022/04/30 01:20:46;;;;;;;14.20;8.63;;;;;;;;;;5067860;28;20021;-81
2022/04/30 01:23:13;;;;;;;19.48;9.45;;;;;;;;;;5067441;28;20036;-82
2022/04/30 01:25:42;;;;;;;19.83;10.23;;;;;;;;;;5058767;28;20029;-81
2022/04/30 01:28:10;;;;;;;16.92;9.43;;;;;;;;;;5067190;28;20028;-82
2022/04/30 01:30:35;;;;;;;19.33;10.80;;;;;;;;;;5057814;28;20045;-82
2022/04/30 01:38:46;;;;;;;19.05;10.18;;;;;;;;;;5051660;28;20090;-80
2022/04/30 01:41:11;;;;;;;20.13;12.40;;;;;;;;;;5057516;28;20025;-80
2022/04/30 01:43:37;;;;;;;24.13;11.95;;;;;;;;;;5058690;28;20493;-81
2022/04/30 01:46:03;;;;;;;21.73;11.25;;;;;;;;;;5057328;28;20021;-80
2022/04/30 01:48:29;;;;;;;23.65;12.00;;;;;;;;;;5039291;28;20063;-80
2022/04/30 01:50:55;;;;;;;18.63;10.85;;;;;;;;;;5066356;28;20115;-81
2022/04/30 01:53:20;;;;;;;27.58;12.82;;;;;;;;;;5070157;28;20047;-81
2022/04/30 01:55:46;;;;;;;30.38;12.60;;;;;;;;;;5068054;28;20071;-81
2022/04/30 01:58:11;;;;;;;19.55;11.48;;;;;;;;;;5061953;28;20455;-80
2022/04/30 02:00:37;;;;;;;19.83;12.48;;;;;;;;;;5045078;28;20029;-81
2022/04/30 02:03:08;;;;;;;28.27;13.38;;;;;;;;;;5061093;28;20029;-81
2022/04/30 02:05:35;;;;;;;21.60;11.80;;;;;;;;;;5063015;28;20393;-80
2022/04/30 02:08:09;;;;;;;24.60;12.90;;;;;;;;;;5059136;28;20021;-80
2022/04/30 02:10:42;;;;;;;26.90;13.32;;;;;;;;;;5048855;28;20029;-81
2022/04/30 02:13:09;;;;;;;21.13;12.60;;;;;;;;;;5056556;28;20036;-81
2022/04/30 02:15:38;;;;;;;26.17;13.50;;;;;;;;;;5035839;28;20108;-81
2022/04/30 02:18:05;;;;;;;22.80;13.35;;;;;;;;;;5057758;28;20029;-81
2022/04/30 02:20:34;;;;;;;24.65;13.07;;;;;;;;;;5055609;28;20028;-80
2022/04/30 02:23:01;;;;;;;24.65;12.85;;;;;;;;;;5057538;28;20041;-80
2022/04/30 02:25:28;;;;;;;24.23;13.50;;;;;;;;;;5056807;28;20017;-81
2022/04/30 02:27:58;;;;;;;18.73;12.48;;;;;;;;;;5063385;28;20029;-81
2022/04/30 02:30:26;;;;;;;24.58;13.98;;;;;;;;;;5069243;28;20074;-80
2022/04/30 02:33:04;;;;;;;19.33;12.38;;;;;;;;;;5051591;28;20471;-81
2022/04/30 02:35:33;;;;;;;25.02;12.80;;;;;;;;;;5063338;28;20482;-81
2022/04/30 02:38:00;;;;;;;20.33;12.15;;;;;;;;;;5049037;28;20036;-80
2022/04/30 02:40:29;;;;;;;23.83;12.05;;;;;;;;;;5070341;28;20025;-80
2022/04/30 02:43:00;;;;;;;19.15;11.65;;;;;;;;;;5078820;28;20048;-80
2022/04/30 02:45:26;;;;;;;21.88;12.27;;;;;;;;;;5079357;28;20037;-81
2022/04/30 02:47:56;;;;;;;21.13;11.43;;;;;;;;;;5061645;28;20952;-81
2022/04/30 02:50:23;;;;;;;21.00;11.70;;;;;;;;;;5074131;28;20047;-80
2022/04/30 02:52:48;;;;;;;24.38;12.90;;;;;;;;;;5069902;28;20051;-80
2022/04/30 02:55:14;;;;;;;19.20;11.82;;;;;;;;;;5068828;28;20482;-81
2022/04/30 03:00:40;;;;;;;27.58;14.05;;;;;;;;;;5074028;28;20494;-81
2022/04/30 03:03:09;;;;;;;23.52;12.55;;;;;;;;;;5083049;28;20097;-81
2022/04/30 03:05:40;;;;;;;26.83;13.15;;;;;;;;;;5076170;28;20162;-80
2022/04/30 03:08:13;;;;;;;23.98;14.05;;;;;;;;;;5081481;28;20036;-81
2022/04/30 03:10:44;;;;;;;26.52;13.65;;;;;;;;;;5078215;28;20040;-81
2022/04/30 03:13:09;;;;;;;25.77;13.25;;;;;;;;;;5062485;28;20517;-80
2022/04/30 03:15:37;;;;;;;28.55;14.50;;;;;;;;;;5061939;28;20041;-81
2022/04/30 03:21:49;;;;;;;30.85;15.23;;;;;;;;;;5066681;28;20055;-80
2022/04/30 03:23:43;;;;;;;27.60;14.68;;;;;;;;;;5044131;28;20131;-81
2022/04/30 03:26:10;;;;;;;26.67;14.82;;;;;;;;;;5062324;28;20056;-81
2022/04/30 03:28:41;;;;;;;27.92;15.70;;;;;;;;;;5068043;28;20527;-81
2022/04/30 03:31:10;;;;;;;30.50;15.60;;;;;;;;;;5068724;28;20033;-80
2022/04/30 03:33:36;;;;;;;28.42;14.88;;;;;;;;;;5062294;28;20035;-82
2022/04/30 03:36:02;;;;;;;29.95;16.45;;;;;;;;;;5070762;28;20509;-81
2022/04/30 03:38:28;;;;;;;29.13;15.38;;;;;;;;;;5062290;28;20040;-81
2022/04/30 03:40:53;;;;;;;35.45;15.70;;;;;;;;;;5062015;28;20033;-81
2022/04/30 03:43:19;;;;;;;30.38;16.48;;;;;;;;;;5062049;28;20036;-81
2022/04/30 03:45:44;;;;;;;32.90;15.35;;;;;;;;;;5061315;28;20029;-82
2022/04/30 03:48:12;;;;;;;33.70;16.83;;;;;;;;;;5060413;28;20060;-80
2022/04/30 03:50:37;;;;;;;32.65;17.58;;;;;;;;;;5060474;28;20106;-80
2022/04/30 03:53:03;;;;;;;31.15;16.90;;;;;;;;;;5059667;28;20028;-81
2022/04/30 03:55:28;;;;;;;31.83;17.92;;;;;;;;;;5059041;28;20031;-81
2022/04/30 03:57:54;;;;;;;35.40;18.63;;;;;;;;;;5065845;28;20119;-80
2022/04/30 04:00:20;;;;;;;30.90;17.27;;;;;;;;;;5067997;28;20045;-80
2022/04/30 04:02:46;;;;;;;31.52;17.70;;;;;;;;;;5041921;28;20053;-80
2022/04/30 04:05:12;;;;;;;36.72;18.45;;;;;;;;;;5061846;28;20067;-81
2022/04/30 04:07:42;;;;;;;35.25;18.40;;;;;;;;;;5065504;28;20052;-81
2022/04/30 04:10:09;;;;;;;28.90;17.08;;;;;;;;;;5060227;28;20086;-81
2022/04/30 04:12:36;;;;;;;39.67;19.60;;;;;;;;;;5050330;28;20025;-80
2022/04/30 04:17:45;;;;;;;34.90;18.67;;;;;;;;;;5060284;28;20086;-80
2022/04/30 04:20:14;;;;;;;31.15;18.63;;;;;;;;;;5060775;28;20116;-81
2022/04/30 04:22:40;;;;;;;37.03;18.20;;;;;;;;;;5064373;28;20391;-81
2022/04/30 04:27:55;;;;;;;40.28;20.02;;;;;;;;;;5056763;28;20035;-81
2022/04/30 04:30:26;;;;;;;40.88;20.90;;;;;;;;;;5066686;28;20048;-80
2022/04/30 04:32:51;;;;;;;31.45;17.15;;;;;;;;;;5059230;28;20043;-81
2022/04/30 04:35:17;;;;;;;38.80;17.83;;;;;;;;;;5045101;28;20025;-80
2022/04/30 04:37:43;;;;;;;39.20;20.92;;;;;;;;;;5064085;28;20108;-80
2022/04/30 04:40:11;;;;;;;33.45;19.98;;;;;;;;;;5059382;28;20371;-80
2022/04/30 04:42:37;;;;;;;37.40;19.52;;;;;;;;;;5059527;28;20028;-82
2022/04/30 04:45:04;;;;;;;38.03;20.60;;;;;;;;;;5059828;28;20122;-79
2022/04/30 04:47:29;;;;;;;33.45;18.80;;;;;;;;;;5060327;28;20025;-81
2022/04/30 04:49:55;;;;;;;38.85;20.52;;;;;;;;;;5060035;28;20035;-80
2022/04/30 04:52:21;;;;;;;37.50;20.70;;;;;;;;;;5050376;28;20391;-81
2022/04/30 04:54:47;;;;;;;41.33;20.17;;;;;;;;;;5060180;28;20037;-81
2022/04/30 04:57:13;;;;;;;39.15;21.20;;;;;;;;;;5062352;28;20114;-80
2022/04/30 04:59:39;;;;;;;43.30;21.42;;;;;;;;;;5071811;28;20104;-80
2022/04/30 05:02:04;;;;;;;38.10;19.80;;;;;;;;;;5063198;28;20025;-81
2022/04/30 05:04:32;;;;;;;35.78;19.83;;;;;;;;;;5041370;28;20021;-81
2022/04/30 05:06:57;;;;;;;42.22;20.80;;;;;;;;;;5066964;28;20025;-82
2022/04/30 05:09:23;;;;;;;40.33;20.48;;;;;;;;;;5058622;28;20036;-82
2022/04/30 05:11:48;;;;;;;41.05;19.98;;;;;;;;;;5058361;28;20063;-82
2022/04/30 05:14:13;;;;;;;47.72;21.60;;;;;;;;;;5059395;28;20063;-81
2022/04/30 05:16:39;;;;;;;43.78;22.00;;;;;;;;;;5059325;28;20025;-82
2022/04/30 05:19:05;;;;;;;34.10;20.17;;;;;;;;;;5041532;28;20075;-81
2022/04/30 05:21:31;;;;;;;40.00;21.63;;;;;;;;;;5049773;28;20029;-82
2022/04/30 05:23:57;;;;;;;35.15;19.20;;;;;;;;;;5059087;28;20029;-81
2022/04/30 05:26:22;;;;;;;38.08;18.77;;;;;;;;;;5058485;28;20491;-82
2022/04/30 05:28:48;;;;;;;42.17;21.65;;;;;;;;;;5066050;28;20083;-81
2022/04/30 05:31:13;;;;;;;32.65;19.48;;;;;;;;;;5067705;28;20043;-81
2022/04/30 05:33:38;;;;;;;38.63;20.55;;;;;;;;;;5058616;28;20390;-81
2022/04/30 05:36:04;;;;;;;38.55;20.00;;;;;;;;;;5043165;28;20032;-81
2022/04/30 05:38:30;;;;;;;37.00;20.70;;;;;;;;;;5079315;28;20027;-82
2022/04/30 05:40:55;;;;;;;35.28;19.38;;;;;;;;;;5045860;28;20029;-83
2022/04/30 05:43:21;;;;;;;33.35;19.15;;;;;;;;;;5058478;28;20090;-82
2022/04/30 05:45:46;;;;;;;36.22;19.40;;;;;;;;;;5058572;28;20029;-83
2022/04/30 05:48:12;;;;;;;33.63;18.67;;;;;;;;;;5057891;28;20048;-83
2022/04/30 05:50:37;;;;;;;38.15;17.88;;;;;;;;;;5058719;28;20021;-82
2022/04/30 05:53:04;;;;;;;34.53;19.52;;;;;;;;;;5059271;28;20029;-83
2022/04/30 05:55:30;;;;;;;35.05;19.25;;;;;;;;;;5040669;28;20021;-82
2022/04/30 05:57:56;;;;;;;36.40;18.48;;;;;;;;;;5061472;28;20036;-82
2022/04/30 06:00:21;;;;;;;40.60;18.42;;;;;;;;;;5051526;28;20044;-82
2022/04/30 06:02:47;;;;;;;32.78;18.20;;;;;;;;;;5070587;22;20056;-82
2022/04/30 06:05:13;;;;;;;36.47;18.80;;;;;;;;;;5058316;28;20059;-83
2022/04/30 06:07:38;;;;;;;34.05;17.25;;;;;;;;;;5039742;28;20385;-82
2022/04/30 06:10:05;;;;;;;29.02;17.85;;;;;;;;;;5040033;28;20402;-81
2022/04/30 06:12:31;;;;;;;33.42;19.25;;;;;;;;;;5046464;28;20493;-82
2022/04/30 06:14:56;;;;;;;34.63;19.00;;;;;;;;;;5039509;28;20021;-81
2022/04/30 06:17:22;;;;;;;29.75;18.65;;;;;;;;;;5058000;28;20028;-83
2022/04/30 06:19:47;;;;;;;29.20;17.67;;;;;;;;;;5058775;28;20048;-82
2022/04/30 06:22:12;;;;;;;29.92;17.52;;;;;;;;;;5040033;28;20441;-82
2022/04/30 06:24:38;;;;;;;33.47;18.67;;;;;;;;;;5057427;28;20475;-82
2022/04/30 06:27:03;;;;;;;43.30;20.45;;;;;;;;;;5056572;28;20029;-81
2022/04/30 06:29:29;;;;;;;36.88;18.35;;;;;;;;;;5057002;28;20040;-81
2022/04/30 06:31:56;;;;;;;30.58;16.75;;;;;;;;;;5056791;28;20482;-83
2022/04/30 06:34:22;;;;;;;29.38;16.98;;;;;;;;;;5058894;28;20041;-83
2022/04/30 06:36:47;;;;;;;32.08;17.92;;;;;;;;;;5061261;28;20082;-83
2022/04/30 06:39:13;;;;;;;36.58;18.33;;;;;;;;;;5061988;28;20025;-82
2022/04/30 06:41:38;;;;;;;33.75;19.25;;;;;;;;;;5061592;28;20021;-82
2022/04/30 06:44:04;;;;;;;29.10;17.13;;;;;;;;;;5061648;28;20028;-82
2022/04/30 06:46:29;;;;;;;34.97;19.65;;;;;;;;;;5062104;28;20112;-83
2022/04/30 06:48:54;;;;;;;29.40;17.02;;;;;;;;;;5070008;28;20441;-82
2022/04/30 06:51:20;;;;;;;31.02;16.90;;;;;;;;;;5066448;28;20093;-82
2022/04/30 06:59:14;;;;;;;29.67;17.02;;;;;;;;;;5062420;28;20402;-83
2022/04/30 07:04:07;;;;;;;33.22;17.90;;;;;;;;;;5084389;28;20026;-83
2022/04/30 07:06:33;;;;;;;29.60;17.13;;;;;;;;;;5081402;28;20014;-82
2022/04/30 07:08:58;;;;;;;30.40;16.25;;;;;;;;;;5082943;28;20054;-83
2022/04/30 07:11:25;;;;;;;29.52;17.27;;;;;;;;;;5081446;28;20104;-83
2022/04/30 07:13:51;;;;;;;30.90;19.00;;;;;;;;;;5081925;28;20033;-83
2022/04/30 07:16:16;;;;;;;32.38;17.60;;;;;;;;;;5082116;28;20036;-83
2022/04/30 07:18:41;;;;;;;31.30;16.50;;;;;;;;;;5081838;28;20275;-80
2022/04/30 07:21:07;;;;;;;32.72;17.58;;;;;;;;;;5086596;28;20028;-83
2022/04/30 07:23:32;;;;;;;29.50;17.23;;;;;;;;;;5093333;28;20043;-82
2022/04/30 07:25:58;;;;;;;28.50;16.42;;;;;;;;;;5083250;28;20024;-83
2022/04/30 07:28:23;;;;;;;27.23;16.10;;;;;;;;;;5081156;28;20047;-84
2022/04/30 07:30:50;;;;;;;24.65;15.75;;;;;;;;;;5085631;28;20087;-84
2022/04/30 07:33:15;;;;;;;32.83;17.23;;;;;;;;;;5082743;28;20470;-84
2022/04/30 07:35:41;;;;;;;31.67;17.70;;;;;;;;;;5084223;28;20040;-84
2022/04/30 07:38:06;;;;;;;26.25;16.00;;;;;;;;;;5081292;28;20027;-85
2022/04/30 07:40:31;;;;;;;30.80;17.63;;;;;;;;;;5082154;28;20047;-84
2022/04/30 07:42:57;;;;;;;25.80;17.40;;;;;;;;;;5064902;28;20063;-82
2022/04/30 07:45:23;;;;;;;32.28;17.55;;;;;;;;;;5085062;28;20035;-84
2022/04/30 07:47:48;;;;;;;26.70;16.52;;;;;;;;;;5091926;28;20020;-84
2022/04/30 07:50:16;;;;;;;26.42;16.05;;;;;;;;;;5088973;28;20021;-84
2022/04/30 07:52:41;;;;;;;25.58;14.75;;;;;;;;;;5073395;28;20027;-84
2022/04/30 07:55:07;;;;;;;21.95;12.98;;;;;;;;;;5088012;28;20062;-84
2022/04/30 07:57:32;;;;;;;23.25;14.85;;;;;;;;;;5083242;28;20076;-83
2022/04/30 07:59:58;;;;;;;21.75;13.57;;;;;;;;;;5082736;28;20031;-83
2022/04/30 08:02:24;;;;;;;23.50;14.95;;;;;;;;;;5082439;28;20033;-83
2022/04/30 08:04:49;;;;;;;22.60;14.38;;;;;;;;;;5067084;28;20039;-83
2022/04/30 08:07:14;;;;;;;24.58;14.20;;;;;;;;;;5081936;28;20028;-83
2022/04/30 08:09:40;;;;;;;25.42;15.98;;;;;;;;;;5081673;28;20429;-84
2022/04/30 08:12:06;;;;;;;26.23;15.32;;;;;;;;;;5081013;28;20058;-82
2022/04/30 08:14:31;;;;;;;22.50;13.75;;;;;;;;;;5088999;28;20051;-83
2022/04/30 08:16:56;;;;;;;26.23;15.10;;;;;;;;;;5091776;28;20024;-84
2022/04/30 08:19:22;;;;;;;29.05;16.23;;;;;;;;;;5086892;28;20051;-85
2022/04/30 08:21:48;;;;;;;26.27;16.70;;;;;;;;;;5054867;28;20021;-81
2022/04/30 08:24:15;;;;;;;28.88;15.25;;;;;;;;;;5070289;28;20514;-84
2022/04/30 08:26:40;;;;;;;22.15;12.73;;;;;;;;;;5062965;28;20044;-85
2022/04/30 08:29:06;;;;;;;24.05;14.35;;;;;;;;;;5080427;28;20040;-85
2022/04/30 08:31:32;;;;;;;23.92;15.38;;;;;;;;;;5080422;28;20182;-85
2022/04/30 08:33:57;;;;;;;21.60;14.73;;;;;;;;;;5088113;28;20482;-83
2022/04/30 08:36:22;;;;;;;25.60;15.75;;;;;;;;;;5084476;28;20072;-83
2022/04/30 08:38:48;;;;;;;21.88;14.55;;;;;;;;;;5080321;28;20047;-82
2022/04/30 08:41:14;;;;;;;23.20;13.82;;;;;;;;;;5062311;28;20032;-83
2022/04/30 08:43:42;;;;;;;24.60;14.50;;;;;;;;;;5080000;28;20482;-83
2022/04/30 08:46:07;;;;;;;24.00;15.00;;;;;;;;;;5079953;28;20424;-86
2022/04/30 08:48:33;;;;;;;22.58;13.50;;;;;;;;;;5069083;28;20489;-84
2022/04/30 08:50:59;;;;;;;29.42;15.93;;;;;;;;;;5073434;28;20028;-84
2022/04/30 08:53:24;;;;;;;26.88;15.07;;;;;;;;;;5090486;28;20103;-84
2022/04/30 08:55:50;;;;;;;23.95;15.77;;;;;;;;;;5088296;28;20016;-83
2022/04/30 08:58:16;;;;;;;25.20;15.05;;;;;;;;;;5067444;28;20025;-83
2022/04/30 09:00:44;;;;;;;22.60;14.43;;;;;;;;;;5079461;28;20051;-83
2022/04/30 09:03:14;;;;;;;25.63;16.60;;;;;;;;;;5074538;28;20035;-82
2022/04/30 09:05:40;;;;;;;27.17;16.42;;;;;;;;;;5093081;28;20031;-80
2022/04/30 09:08:06;;;;;;;23.10;14.30;;;;;;;;;;5078989;28;20028;-84
2022/04/30 09:10:34;;;;;;;21.77;14.95;;;;;;;;;;5059130;28;20339;-84
2022/04/30 09:13:06;;;;;;;19.08;12.60;;;;;;;;;;5077155;28;20398;-86
2022/04/30 09:15:32;;;;;;;;;;;;;;;;;;5077576;28;20310;-82
2022/04/30 09:17:58;;;;;;;21.58;13.10;;;;;;;;;;5077082;28;20320;-85
2022/04/30 09:20:23;;;;;;;22.20;13.68;;;;;;;;;;5059795;28;20502;-85
2022/04/30 09:22:49;;;;;;;25.52;15.73;;;;;;;;;;5060133;28;20104;-86
2022/04/30 09:25:15;;;;;;;17.83;11.77;;;;;;;;;;5077731;28;20052;-85
2022/04/30 09:27:43;;;;;;;17.65;12.52;;;;;;;;;;5059879;28;20090;-84
2022/04/30 09:30:29;;;;;;;18.40;12.40;;;;;;;;;;5078171;28;20569;-85
2022/04/30 09:32:57;;;;;;;18.02;11.90;;;;;;;;;;5041104;28;20053;-83
2022/04/30 09:38:07;;;;;;;20.70;12.93;;;;;;;;;;5076115;28;20135;-85
2022/04/30 09:40:32;;;;;;;17.50;11.35;;;;;;;;;;5061151;28;20048;-84
2022/04/30 09:43:00;;;;;;;18.35;12.20;;;;;;;;;;5061149;28;20028;-83
2022/04/30 09:45:29;;;;;;;20.25;12.57;;;;;;;;;;5077930;28;20101;-83
2022/04/30 09:47:55;;;;;;;19.75;12.75;;;;;;;;;;5078847;28;20031;-84
2022/04/30 09:55:55;;;;;;;16.92;10.98;;;;;;;;;;5079495;28;20031;-83
2022/04/30 09:58:24;;;;;;;16.50;10.82;;;;;;;;;;5078667;28;20031;-83
2022/04/30 10:00:57;;;;;;;14.52;9.75;;;;;;;;;;5079147;28;20035;-84
2022/04/30 10:03:28;;;;;;;13.77;9.60;;;;;;;;;;5078207;28;20024;-83
2022/04/30 10:06:05;;;;;;;16.42;9.23;;;;;;;;;;5079479;28;20047;-84
2022/04/30 10:08:36;;;;;;;10.35;7.72;;;;;;;;;;5056084;28;20043;-84
2022/04/30 10:11:28;;;;;;;10.00;7.18;;;;;;;;;;5054895;28;20100;-85
2022/04/30 10:14:09;;;;;;;7.75;5.35;;;;;;;;;;5034202;28;20554;-83
2022/04/30 10:16:35;;;;;;;7.13;5.70;;;;;;;;;;5057837;28;20048;-84
2022/04/30 10:19:16;;;;;;;8.25;6.47;;;;;;;;;;5082166;28;20454;-84
2022/04/30 10:21:42;;;;;;;11.65;7.43;;;;;;;;;;5064884;28;20035;-84
2022/04/30 10:24:12;;;;;;;11.85;7.80;;;;;;;;;;5082803;28;20054;-82
2022/04/30 10:26:38;;;;;;;15.00;8.65;;;;;;;;;;5063810;28;20016;-85
2022/04/30 10:29:13;;;;;;;9.68;6.80;;;;;;;;;;5082242;28;20070;-84
2022/04/30 10:31:44;;;;;;;12.70;8.00;;;;;;;;;;5081396;28;20025;-85
2022/04/30 10:34:10;;;;;;;8.02;6.60;;;;;;;;;;5065957;28;20077;-84
2022/04/30 10:36:37;;;;;;;5.93;4.55;;;;;;;;;;5064432;28;20039;-86
2022/04/30 10:39:04;;;;;;;4.97;4.22;;;;;;;;;;5064558;28;20032;-85
2022/04/30 10:41:45;;;;;;;7.00;3.83;;;;;;;;;;5082093;28;20099;-84
2022/04/30 10:44:12;;;;;;;2.00;1.88;;;;;;;;;;5081626;28;20029;-84
2022/04/30 10:46:41;;;;;;;3.35;2.75;;;;;;;;;;5083624;28;20021;-85
2022/04/30 10:49:06;;;;;;;3.72;2.80;;;;;;;;;;5092625;28;20491;-84
2022/04/30 10:51:43;;;;;;;4.03;2.80;;;;;;;;;;5090018;28;20039;-83
2022/04/30 10:54:18;;;;;;;3.22;2.80;;;;;;;;;;5062991;28;20028;-83
2022/04/30 10:56:44;;;;;;;4.85;3.17;;;;;;;;;;5064460;28;20025;-85
2022/04/30 10:59:10;;;;;;;3.38;3.00;;;;;;;;;;5083576;28;20048;-84
2022/04/30 11:01:35;;;;;;;4.45;3.75;;;;;;;;;;5082789;28;20047;-84
2022/04/30 11:04:01;;;;;;;5.72;3.72;;;;;;;;;;5083474;28;20038;-83
2022/04/30 11:06:30;;;;;;;4.78;3.58;;;;;;;;;;5082331;28;20024;-84
2022/04/30 11:09:07;;;;;;;6.82;4.45;;;;;;;;;;5083835;28;20077;-86
2022/04/30 11:11:35;;;;;;;5.05;4.25;;;;;;;;;;5084027;28;20028;-83
2022/04/30 11:14:06;;;;;;;5.68;3.92;;;;;;;;;;5086155;28;20688;-83
2022/04/30 11:16:32;;;;;;;5.03;4.53;;;;;;;;;;5083972;28;20020;-84
2022/04/30 11:19:07;;;;;;;5.82;4.57;;;;;;;;;;5084372;28;20040;-82
2022/04/30 11:21:38;;;;;;;5.90;4.65;;;;;;;;;;5083717;28;20474;-83
2022/04/30 11:24:04;;;;;;;5.57;4.20;;;;;;;;;;5068017;28;20564;-85
2022/04/30 11:26:30;;;;;;;5.90;4.38;;;;;;;;;;5076108;28;20020;-84
2022/04/30 11:28:57;;;;;;;5.68;4.28;;;;;;;;;;5082007;28;20048;-83
2022/04/30 11:31:22;;;;;;;6.13;4.40;;;;;;;;;;5083885;28;20033;-84
2022/04/30 11:33:48;;;;;;;6.13;4.78;;;;;;;;;;5086173;28;20031;-83
2022/04/30 11:36:13;;;;;;;4.38;3.92;;;;;;;;;;5062234;28;20032;-84
2022/04/30 11:38:40;;;;;;;6.30;4.57;;;;;;;;;;5078890;28;20025;-83
2022/04/30 11:41:07;;;;;;;5.80;4.70;;;;;;;;;;5081276;28;20571;-84
2022/04/30 11:43:33;;;;;;;6.25;5.10;;;;;;;;;;5062917;28;20028;-84
2022/04/30 11:46:02;;;;;;;5.68;4.78;;;;;;;;;;5062899;28;20020;-84
2022/04/30 11:48:38;;;;;;;6.30;5.20;;;;;;;;;;5066816;28;20477;-83
2022/04/30 11:51:04;;;;;;;6.03;4.53;;;;;;;;;;5067452;28;20489;-82
2022/04/30 11:53:30;;;;;;;4.80;4.18;;;;;;;;;;5081186;28;20040;-82
2022/04/30 11:55:55;;;;;;;5.88;4.70;;;;;;;;;;5059460;28;20028;-86
2022/04/30 11:58:21;;;;;;;5.32;4.45;;;;;;;;;;5081193;28;20020;-84
2022/04/30 12:00:51;;;;;;;5.35;4.38;;;;;;;;;;5081252;28;20367;-84
2022/04/30 12:03:25;;;;;;;6.80;5.32;;;;;;;;;;5071180;23;20052;-84
2022/04/30 12:05:52;;;;;;;5.75;4.55;;;;;;;;;;5074897;28;20064;-84
2022/04/30 12:08:18;;;;;;;5.97;4.80;;;;;;;;;;5061638;28;20036;-82
2022/04/30 12:10:53;;;;;;;7.22;5.43;;;;;;;;;;5074705;28;20112;-85
2022/04/30 12:13:23;;;;;;;6.80;5.35;;;;;;;;;;5081608;28;20383;-84
2022/04/30 12:15:48;;;;;;;6.15;5.38;;;;;;;;;;5081408;28;20040;-84
2022/04/30 12:27:03;;;;;;;5.10;4.22;;;;;;;;;;5076462;28;20046;-84
2022/04/30 12:29:30;;;;;;;8.27;5.78;;;;;;;;;;5056437;28;20029;-84
2022/04/30 12:31:56;;;;;;;7.85;5.15;;;;;;;;;;5082200;28;20464;-84
2022/04/30 12:34:34;;;;;;;8.15;5.43;;;;;;;;;;5063343;28;20071;-83
2022/04/30 12:37:00;;;;;;;8.23;6.15;;;;;;;;;;5091579;28;20020;-83
2022/04/30 12:39:27;;;;;;;7.68;6.10;;;;;;;;;;5068916;28;20021;-83
2022/04/30 12:41:54;;;;;;;8.73;6.72;;;;;;;;;;5060477;28;20100;-85
2022/04/30 12:44:22;;;;;;;8.90;7.13;;;;;;;;;;5068798;28;20466;-83
2022/04/30 12:46:48;;;;;;;8.60;6.57;;;;;;;;;;5081707;28;20025;-84
2022/04/30 12:49:15;;;;;;;7.15;6.15;;;;;;;;;;5079060;28;20043;-84
2022/04/30 12:51:42;;;;;;;8.02;6.05;;;;;;;;;;5079440;28;20025;-83
2022/04/30 12:54:11;;;;;;;10.48;6.95;;;;;;;;;;5087524;28;20386;-84
2022/04/30 12:56:37;;;;;;;11.95;8.30;;;;;;;;;;5061958;28;20028;-84
2022/04/30 12:59:03;;;;;;;12.43;8.00;;;;;;;;;;5080788;28;20117;-84
2022/04/30 13:01:29;;;;;;;12.75;9.25;;;;;;;;;;5086247;28;20021;-83
2022/04/30 13:03:55;;;;;;;14.00;10.23;;;;;;;;;;5078292;28;20042;-84
2022/04/30 13:06:21;;;;;;;17.10;11.10;;;;;;;;;;5069476;28;20012;-83
2022/04/30 13:14:14;;;;;;;14.82;10.77;;;;;;;;;;5079953;28;20051;-85
2022/04/30 13:16:40;;;;;;;16.10;10.70;;;;;;;;;;5078860;28;20021;-86
2022/04/30 13:19:05;;;;;;;16.08;10.45;;;;;;;;;;5078050;28;20043;-85
2022/04/30 13:21:31;;;;;;;16.35;10.65;;;;;;;;;;5076319;28;20021;-84
2022/04/30 13:23:56;;;;;;;14.52;10.10;;;;;;;;;;5079306;28;20028;-85
2022/04/30 13:26:22;;;;;;;14.15;10.40;;;;;;;;;;5077561;28;20390;-85
2022/04/30 13:28:48;;;;;;;16.27;11.05;;;;;;;;;;5078076;28;20035;-84
2022/04/30 13:31:13;;;;;;;16.08;10.77;;;;;;;;;;5086418;28;20125;-85
2022/04/30 13:33:39;;;;;;;15.73;10.98;;;;;;;;;;5078433;28;20063;-83
2022/04/30 13:36:05;;;;;;;15.30;10.68;;;;;;;;;;5088386;28;20029;-82
2022/04/30 13:38:31;;;;;;;13.25;10.38;;;;;;;;;;5088992;28;20051;-84
2022/04/30 13:40:57;;;;;;;15.65;10.90;;;;;;;;;;5060324;28;20028;-83
2022/04/30 13:43:23;;;;;;;15.77;11.07;;;;;;;;;;5080591;28;20020;-83
2022/04/30 13:45:48;;;;;;;16.80;10.73;;;;;;;;;;5094222;28;20143;-83
2022/04/30 13:48:14;;;;;;;13.32;10.00;;;;;;;;;;5080281;28;20098;-83
2022/04/30 13:50:39;;;;;;;12.23;8.52;;;;;;;;;;5054991;28;20371;-83
2022/04/30 13:53:05;;;;;;;17.45;11.75;;;;;;;;;;5082593;28;20035;-83
2022/04/30 13:55:32;;;;;;;14.48;10.57;;;;;;;;;;5081571;28;20136;-84
2022/04/30 13:57:57;;;;;;;14.95;10.88;;;;;;;;;;5078225;28;20484;-85
2022/04/30 14:00:23;;;;;;;15.07;10.60;;;;;;;;;;5082954;28;20031;-84
2022/04/30 14:05:37;;;;;;;15.80;10.02;;;;;;;;;;5225290;23;20104;-82
2022/04/30 14:08:04;;;;;;;14.85;10.77;;;;;;;;;;4976608;28;20118;-84
2022/04/30 14:10:29;;;;;;;14.98;9.80;;;;;;;;;;4979854;28;20023;-85
2022/04/30 14:14:55;;;;;;;13.68;10.57;;;;;;;;;;4953479;28;20102;-85
2022/04/30 14:15:42;;;;;;;16.35;10.63;;;;;;;;;;4974221;28;20061;-85
2022/04/30 14:18:16;;;;;;;15.25;10.65;;;;;;;;;;4985185;28;20074;-85
2022/04/30 14:20:43;;;;;;;17.88;10.23;;;;;;;;;;4972052;28;20037;-84
2022/04/30 14:23:11;;;;;;;13.10;9.60;;;;;;;;;;4974649;28;20053;-83
2022/04/30 14:25:37;;;;;;;14.73;10.27;;;;;;;;;;4979785;28;20066;-84
2022/04/30 14:28:03;;;;;;;13.20;9.65;;;;;;;;;;4978784;28;20386;-83
2022/04/30 14:30:29;;;;;;;12.18;9.45;;;;;;;;;;4977000;28;20023;-84
2022/04/30 14:32:55;;;;;;;10.68;8.60;;;;;;;;;;4978993;28;20033;-84
2022/04/30 14:35:20;;;;;;;10.23;7.13;;;;;;;;;;4988152;28;20054;-84
2022/04/30 14:37:46;;;;;;;10.93;7.90;;;;;;;;;;4994876;28;20022;-83
2022/04/30 14:40:15;;;;;;;9.13;5.88;;;;;;;;;;4979476;28;20105;-83
2022/04/30 14:42:40;;;;;;;8.35;6.30;;;;;;;;;;4971989;28;20058;-83
2022/04/30 14:45:07;;;;;;;8.57;6.75;;;;;;;;;;4973210;28;20043;-83
2022/04/30 14:47:32;;;;;;;9.68;7.20;;;;;;;;;;4992217;28;20318;-85
2022/04/30 14:49:58;;;;;;;10.40;7.18;;;;;;;;;;4985130;28;20023;-84
2022/04/30 14:52:24;;;;;;;10.13;7.82;;;;;;;;;;4967327;28;20117;-84
2022/04/30 14:54:50;;;;;;;11.32;8.30;;;;;;;;;;4970873;28;20528;-84
2022/04/30 14:57:16;;;;;;;12.65;7.82;;;;;;;;;;4956591;28;20022;-84
2022/04/30 14:59:41;;;;;;;10.52;7.95;;;;;;;;;;4991427;28;20025;-85
2022/04/30 15:02:07;;;;;;;10.48;7.90;;;;;;;;;;5002999;28;20472;-84
2022/04/30 15:04:32;;;;;;;10.15;7.45;;;;;;;;;;4973508;28;20050;-84
2022/04/30 15:06:59;;;;;;;11.45;7.20;;;;;;;;;;5003043;28;20034;-83
2022/04/30 15:09:25;;;;;;;9.48;7.13;;;;;;;;;;4974088;28;20027;-85
2022/04/30 15:11:51;;;;;;;10.77;6.88;;;;;;;;;;4959956;28;20037;-84